• Join FlightAware (Why Join?)
  • Login
  • US Flag 
03:10PM EDT


 

Airport Tracker/Info


-or-


 

Live Flight TrackerFlight Track Log ✈ AWE2690 ✈ 04-Sep-2013 ✈ KIAD - KCLT

Flight Track Log - Related Links

Times and Time Zones

All times are in EDT time to prevent confusion due to time zone crossing. See the AWE2690 flight status page for this flight to view local times or setup timezone preferences in your user account.

Time Position Orientation Groundspeed Altitude Reporting Facility
EDT Latitude Longitude Course Direction KTS MPH feet Rate Location/Type
11:27AM 38.9500 -77.5000 229° Southwest 172 198 1,300  Level Potomac TRACON
11:28AM 38.9167 -77.5500 229° Southwest 214 246 3,200 2,460 Climbing Potomac TRACON
11:29AM 38.8500 -77.6000 210° Southwest 279 321 6,000 2,520 Climbing Potomac TRACON
11:31AM 38.6781 -77.5833 176° South 300 345 11,300 2,520 Climbing Washington Center
11:32AM 38.5842 -77.5783 178° South 318 366 14,000 2,400 Climbing Washington Center
11:33AM 38.4864 -77.5731 178° South 342 394 16,200 2,160 Climbing Washington Center
11:34AM 38.3861 -77.5836 185° South 358 412 18,400 1,860 Climbing Washington Center
11:35AM 38.3219 -77.6825 230° Southwest 340 391 20,300 1,980 Climbing Washington Center
11:36AM 38.2447 -77.8019 231° Southwest 346 398 22,800 1,860 Climbing Washington Center
11:37AM 38.1889 -77.8847 229° Southwest 370 426 24,100 1,320 Climbing Washington Center
11:38AM 38.1200 -77.9908 230° Southwest 389 448 25,500 1,800 Climbing Washington Center
11:39AM 38.0339 -78.1253 231° Southwest 411 473 27,700 1,260 Climbing Washington Center
11:40AM 37.9628 -78.2308 230° Southwest 411 473 28,000 120 Climbing Washington Center
11:41AM 37.8831 -78.3464 229° Southwest 422 486 28,000  Level Washington Center
11:42AM 37.8031 -78.4619 229° Southwest 427 491 28,000  Level Washington Center
11:43AM 37.7233 -78.5744 228° Southwest 433 498 28,000  Level Washington Center
11:44AM 37.6517 -78.6792 229° Southwest 433 498 28,000  Level Washington Center
11:45AM 37.5717 -78.7911 228° Southwest 433 498 28,000  Level Washington Center
11:46AM 37.4914 -78.9056 229° Southwest 433 498 28,000  Level Washington Center
11:47AM 37.4111 -79.0172 228° Southwest 433 498 28,000  Level Washington Center
11:48AM 37.3219 -79.1411 228° Southwest 433 498 28,000  Level Washington Center
11:49AM 37.2372 -79.2494 226° Southwest 433 498 28,000  Level Washington Center
11:50AM 37.1344 -79.3331 213° Southwest 433 498 28,000  Level Washington Center
11:51AM 37.0317 -79.4192 214° Southwest 438 504 28,000  Level Washington Center
11:52AM 36.9308 -79.5050 214° Southwest 443 510 28,000  Level Washington Center
11:53AM 36.8386 -79.5808 213° Southwest 448 516 28,000  Level Washington Center
11:54AM 36.7356 -79.6661 214° Southwest 453 521 28,000  Level Washington Center
11:55AM 36.6325 -79.7489 213° Southwest 453 521 28,000 -120 Level Washington Center
11:56AM 36.5486 -79.8136 212° Southwest 451 519 27,800 -1,080 Descending Atlanta Center
11:57AM 36.4472 -79.8939 213° Southwest 446 513 26,200 -1,560 Descending Atlanta Center
11:58AM 36.3600 -79.9678 214° Southwest 440 506 24,700 -1,500 Descending Atlanta Center
11:59AM 36.2664 -80.0422 213° Southwest 427 491 23,200 -1,500 Descending Atlanta Center
12:00PM 36.1772 -80.1211 216° Southwest 408 470 21,700 -1,620 Descending Atlanta Center
12:01PM 36.0819 -80.2056 216° Southwest 394 453 20,000 -1,620 Descending Atlanta Center
12:02PM 35.9983 -80.2711 212° Southwest 387 445 18,500 -1,440 Descending Atlanta Center
12:02PM 35.9436 -80.3275 220° Southwest 366 421 17,700 -1,320 Descending Atlanta Center
12:03PM 35.9011 -80.3653 216° Southwest 348 400 16,900 -1,380 Descending Atlanta Center
12:04PM 35.8500 -80.4008 209° Southwest 347 399 15,900 -1,500 Descending Atlanta Center
12:05PM 35.7767 -80.4631 215° Southwest 325 374 14,300 -1,560 Descending Atlanta Center
12:06PM 35.7097 -80.5222 216° Southwest 314 361 12,800 -1,500 Descending Atlanta Center
12:07PM 35.6342 -80.5842 214° Southwest 299 344 11,300 -900 Descending Atlanta Center
12:08PM 35.5669 -80.6406 214° Southwest 299 344 11,000 -300 Descending Atlanta Center
12:09PM 35.4994 -80.6944 213° Southwest 294 338 10,700 -540 Descending Atlanta Center
12:10PM 35.4322 -80.7508 214° Southwest 294 338 10,000 -360 Descending Atlanta Center
12:11PM 35.3669 -80.8042 214° Southwest 294 338 10,000 -360 Level Atlanta Center
12:12PM 35.2969 -80.8400 203° Southwest 285 328 9,300 -660 Descending Atlanta Center
12:13PM 35.2111 -80.8333 176° South 240 276 8,600 -900 Descending Atlanta Center
12:14PM 35.1486 -80.8306 178° South 240 276 7,500 -1,260 Descending Atlanta Center
12:15PM 35.0794 -80.8256 177° South 232 267 6,100 -1,500 Descending Atlanta Center
12:16PM 35.0450 -80.8675 225° Southwest 222 255 4,500 -1,440 Descending Atlanta Center
12:17PM 35.0714 -80.9147 304° West 189 217 3,500 -1,020 Descending Atlanta Center
12:18PM 35.1156 -80.9308 343° North 164 189 2,600 -960 Descending Atlanta Center
12:19PM 35.1636 -80.9342 357° North 145 167 1,500 -1,020 Descending Atlanta Center
12:21PM 35.2000 -80.9333 348° North  Level FlightAware Approximate
12:28PM 35.2137 -80.9491 348° North  Level Estimated